Terminal Aerodrome Forecast
Issued by NWS

Home | Current Version | Previous Version | Text Only | Print | Product List | Glossary On
Versions: 1 2 3 4 5 6 7 8 9 10 11 12 13 14 15 16 17 18 19 20 21 22 23 24 25 26 27 28 29 30 31 32 33 34 35 36 37 38
000
FTUS42 KGSP 260624 AAA
TAFHKY
TAF AMD
KHKY 260624Z 2606/2706 04004KT 2SM BR OVC002
      TEMPO 2606/2609 00000KT 3SM RA SCT002 BKN005
     FM261000 10003KT 1/2SM FG OVC004
     FM261200 07004KT 1SM BR BKN007
     FM261400 07006KT 3SM BR BKN024
     FM261600 05004KT P6SM BKN035=

USA.gov is the U.S. government's official web portal to all federal, state and local government web resources and services.